Time;durP1;ratioP1;P1;durP2;ratioP2;P2;SDS_P1;SDS_P2;PMS_P1;PMS_P2;Temp;Humidity;BMP_temperature;BMP_pressure;BME280_temperature;BME280_humidity;BME280_pressure;Samples;Min_cycle;Max_cycle;Signal;HPM_P1;HPM_P2
2021/12/08 00:01:38;;;;;;;6.00;5.37;;;10.10;99.90;;;;;;5095573;28;20222;-74
2021/12/08 00:07:31;;;;;;;5.15;4.75;;;9.90;99.90;;;;;;5097750;28;20204;-79
2021/12/08 00:10:16;;;;;;;6.10;5.60;;;10.00;99.90;;;;;;5100347;28;20261;-74
2021/12/08 00:13:32;;;;;;;5.57;5.07;;;9.90;99.90;;;;;;5095264;28;20873;-75
2021/12/08 00:20:55;;;;;;;;;;;;;;;;;;;;;
2021/12/08 00:24:09;;;;;;;56.88;15.70;;;10.00;99.90;;;;;;5075964;28;20504;-73
2021/12/08 00:28:02;;;;;;;;;;;;;;;;;;;;;
2021/12/08 00:34:55;;;;;;;9.13;7.37;;;10.00;99.90;;;;;;5015703;28;20451;-71
2021/12/08 00:37:27;;;;;;;6.90;6.30;;;10.00;99.90;;;;;;5059238;28;20502;-72
2021/12/08 00:39:58;;;;;;;6.72;6.15;;;9.90;99.90;;;;;;5056120;28;20213;-71
2021/12/08 00:42:29;;;;;;;5.60;5.20;;;9.90;99.90;;;;;;5062322;28;20566;-75
2021/12/08 00:45:10;;;;;;;6.20;5.60;;;9.80;99.90;;;;;;5062479;28;20543;-75
2021/12/08 00:47:42;;;;;;;6.63;6.00;;;9.90;99.90;;;;;;5058864;28;20456;-73
2021/12/08 00:50:31;;;;;;;7.27;6.67;;;9.90;99.90;;;;;;5064171;28;20460;-74
2021/12/08 00:53:05;;;;;;;5.77;5.10;;;9.80;99.90;;;;;;5093835;28;20450;-75
2021/12/08 00:55:42;;;;;;;7.60;7.00;;;9.80;99.90;;;;;;5100156;28;20457;-74
2021/12/08 00:58:44;;;;;;;7.20;6.60;;;9.80;99.90;;;;;;5107036;28;20255;-77
2021/12/08 01:01:38;;;;;;;7.70;6.97;;;9.90;99.90;;;;;;5074735;28;20464;-77
2021/12/08 01:04:11;;;;;;;7.53;6.80;;;9.70;99.90;;;;;;5100764;28;20238;-72
2021/12/08 01:06:46;;;;;;;26.23;10.93;;;9.70;99.90;;;;;;5099741;28;20541;-71
2021/12/08 01:09:18;;;;;;;432.10;70.32;;;9.70;99.90;;;;;;5097174;28;20295;-74
2021/12/08 01:11:49;;;;;;;220.97;38.30;;;9.90;99.90;;;;;;5107174;27;20240;-71
2021/12/08 01:14:20;;;;;;;13.93;7.63;;;9.90;99.90;;;;;;5103761;28;20498;-73
2021/12/08 01:16:52;;;;;;;7.30;6.67;;;9.90;99.90;;;;;;5101673;27;20481;-73
2021/12/08 01:19:25;;;;;;;10.07;8.43;;;9.70;99.90;;;;;;5118147;27;20455;-72
2021/12/08 01:21:58;;;;;;;15.07;9.98;;;9.70;99.90;;;;;;5099627;28;20331;-73
2021/12/08 01:24:35;;;;;;;23.20;16.27;;;9.70;99.90;;;;;;5095948;27;20936;-76
2021/12/08 01:27:06;;;;;;;39.73;27.40;;;9.60;99.90;;;;;;5107320;27;20919;-72
2021/12/08 01:29:37;;;;;;;53.20;34.33;;;9.70;99.90;;;;;;5109817;28;20905;-72
2021/12/08 01:32:08;;;;;;;55.70;36.60;;;9.50;99.90;;;;;;5121566;27;20472;-72
2021/12/08 01:34:39;;;;;;;69.75;44.42;;;9.50;99.90;;;;;;5104574;28;20526;-73
2021/12/08 01:37:21;;;;;;;81.43;48.27;;;9.60;99.90;;;;;;5102640;27;20216;-72
2021/12/08 01:40:21;;;;;;;76.93;50.23;;;9.60;99.90;;;;;;5027767;28;20453;-72
2021/12/08 01:42:56;;;;;;;91.03;53.67;;;9.50;99.90;;;;;;5045207;28;20468;-74
2021/12/08 01:48:19;;;;;;;87.17;52.17;;;9.60;99.90;;;;;;5035150;28;21003;-72
2021/12/08 01:50:53;;;;;;;87.80;51.40;;;9.60;99.90;;;;;;5034285;28;20496;-74
2021/12/08 01:53:32;;;;;;;79.83;54.07;;;9.60;99.90;;;;;;5034141;28;20451;-73
2021/12/08 01:56:03;;;;;;;81.27;51.10;;;9.60;99.90;;;;;;5029358;28;21004;-71
2021/12/08 01:58:34;;;;;;;70.10;44.67;;;9.70;99.90;;;;;;5033138;28;20477;-72
2021/12/08 02:01:08;;;;;;;491.90;119.00;;;9.70;99.90;;;;;;5036485;28;20495;-72
2021/12/08 02:03:40;;;;;;;450.87;116.20;;;9.80;99.90;;;;;;5032542;28;20539;-70
2021/12/08 02:06:12;;;;;;;1999.90;612.20;;;10.00;99.90;;;;;;5020138;28;20461;-71
2021/12/08 02:08:45;;;;;;;96.70;52.87;;;10.00;99.90;;;;;;5041332;28;20449;-72
2021/12/08 02:11:16;;;;;;;72.35;44.97;;;10.10;99.90;;;;;;5034905;28;20588;-72
2021/12/08 02:13:49;;;;;;;69.40;44.70;;;10.00;99.90;;;;;;5049005;28;20210;-73
2021/12/08 02:16:21;;;;;;;74.67;47.60;;;9.90;99.90;;;;;;5119107;27;20538;-73
2021/12/08 02:23:01;;;;;;;62.80;43.40;;;9.80;99.90;;;;;;4997122;28;20470;-73
2021/12/08 02:25:32;;;;;;;58.30;40.97;;;9.80;99.90;;;;;;5100932;28;20454;-74
2021/12/08 02:28:04;;;;;;;58.73;41.33;;;9.80;99.90;;;;;;5104678;28;20441;-73
2021/12/08 02:30:39;;;;;;;50.10;35.87;;;9.80;99.90;;;;;;5098248;28;20488;-72
2021/12/08 02:47:52;;;;;;;30.50;22.33;;;10.10;99.90;;;;;;5104439;28;20445;-74
2021/12/08 02:50:30;;;;;;;20.23;15.07;;;10.10;99.90;;;;;;5100076;28;20488;-74
2021/12/08 03:14:13;;;;;;;13.75;12.23;;;10.00;99.90;;;;;;4994038;28;20203;-74
2021/12/08 05:39:21;;;;;;;35.90;24.20;;;8.60;99.90;;;;;;5097179;27;20298;-73
2021/12/08 05:42:01;;;;;;;40.25;26.00;;;8.60;99.90;;;;;;5104325;28;20247;-73
2021/12/08 05:51:31;;;;;;;60.55;25.17;;;8.60;99.90;;;;;;5095970;27;20301;-74
2021/12/08 07:22:43;;;;;;;31.33;20.67;;;8.10;99.90;;;;;;5087323;28;20294;-70
2021/12/08 07:55:54;;;;;;;21.75;17.63;;;8.40;99.90;;;;;;5046325;28;20398;-74
2021/12/08 08:17:38;;;;;;;3.20;2.88;;;9.20;99.90;;;;;;5064149;28;20613;-73
2021/12/08 08:57:40;;;;;;;1.23;1.13;;;9.60;99.90;;;;;;5025266;28;20298;-74
2021/12/08 09:47:28;;;;;;;0.60;0.60;;;10.20;99.90;;;;;;5034400;28;20574;-74
2021/12/08 09:50:06;;;;;;;0.50;0.50;;;10.10;99.90;;;;;;5063927;28;20550;-74
2021/12/08 10:04:37;;;;;;;1.00;0.35;;;10.30;99.90;;;;;;5062061;28;20240;-76
2021/12/08 10:07:20;;;;;;;0.52;0.38;;;10.20;99.90;;;;;;5051306;28;20217;-74
2021/12/08 10:10:14;;;;;;;1.00;0.50;;;10.10;99.90;;;;;;5066521;28;20276;-74
2021/12/08 15:16:29;;;;;;;1.90;0.70;;;8.60;99.90;;;;;;5006628;28;20669;-72
2021/12/08 15:19:47;;;;;;;0.70;0.70;;;8.70;99.90;;;;;;5084563;28;20240;-74
2021/12/08 15:26:08;;;;;;;1.55;0.90;;;8.80;99.90;;;;;;5078893;28;20214;-73
2021/12/08 15:28:43;;;;;;;0.70;0.70;;;8.70;99.90;;;;;;5090164;28;20266;-73
2021/12/08 15:31:55;;;;;;;1.15;1.05;;;8.80;99.90;;;;;;5088423;28;20670;-73
2021/12/08 15:34:35;;;;;;;1.15;0.70;;;8.80;99.90;;;;;;5084247;28;20225;-74
2021/12/08 15:37:17;;;;;;;1.20;1.10;;;8.80;99.90;;;;;;5088437;28;20334;-74
2021/12/08 15:39:56;;;;;;;2.10;0.90;;;8.70;99.90;;;;;;5082089;28;20254;-73
2021/12/08 15:42:34;;;;;;;2.38;0.98;;;8.80;99.90;;;;;;5083098;28;20227;-72
2021/12/08 15:45:07;;;;;;;1.05;0.95;;;8.80;99.90;;;;;;5086105;28;21124;-73
2021/12/08 15:47:38;;;;;;;1.05;0.95;;;8.80;99.90;;;;;;5070477;28;20307;-72
2021/12/08 15:50:26;;;;;;;1.02;0.98;;;8.80;99.90;;;;;;5087361;28;20296;-67
2021/12/08 15:53:00;;;;;;;1.65;0.93;;;8.80;99.90;;;;;;5088216;28;20690;-70
2021/12/08 15:55:35;;;;;;;2.13;1.20;;;8.80;99.90;;;;;;5083939;28;20241;-71
2021/12/08 15:58:18;;;;;;;1.70;1.60;;;8.80;99.90;;;;;;5083796;28;20239;-71
2021/12/08 16:00:51;;;;;;;2.92;1.45;;;8.80;99.90;;;;;;5084548;28;20232;-70
2021/12/08 16:03:43;;;;;;;1.27;1.17;;;8.80;99.90;;;;;;5094034;28;20220;-73
2021/12/08 16:06:21;;;;;;;0.85;0.85;;;8.90;99.90;;;;;;5078355;28;20224;-75
2021/12/08 16:08:54;;;;;;;1.13;1.00;;;8.90;99.90;;;;;;5081578;28;20236;-74
2021/12/08 16:11:43;;;;;;;1.95;0.80;;;8.90;99.90;;;;;;5079587;28;20683;-74
2021/12/08 16:21:28;;;;;;;1.02;1.02;;;8.90;99.90;;;;;;5061426;28;20275;-75
2021/12/08 16:24:02;;;;;;;2.60;1.73;;;8.90;99.90;;;;;;5053083;28;20284;-75
2021/12/08 16:26:55;;;;;;;2.58;1.23;;;9.10;99.90;;;;;;5054989;28;20284;-75
2021/12/08 16:29:29;;;;;;;1.60;1.38;;;9.10;99.90;;;;;;5065773;28;20213;-74
2021/12/08 16:32:17;;;;;;;1.40;1.30;;;9.00;99.90;;;;;;5066453;28;20213;-74
2021/12/08 16:38:13;;;;;;;2.60;1.70;;;9.10;99.90;;;;;;5063133;28;20228;-75
2021/12/08 16:43:46;;;;;;;2.45;1.40;;;9.10;99.90;;;;;;5049873;28;20275;-74
2021/12/08 16:46:17;;;;;;;1.35;1.25;;;9.10;99.90;;;;;;5064495;28;20213;-74
2021/12/08 16:48:49;;;;;;;3.28;1.40;;;9.10;99.90;;;;;;5068689;28;20220;-74
2021/12/08 16:51:20;;;;;;;11.88;3.92;;;9.10;99.90;;;;;;5064056;28;20210;-75
2021/12/08 16:53:54;;;;;;;1.92;0.70;;;9.10;99.90;;;;;;5078017;28;20222;-75
2021/12/08 16:56:25;;;;;;;117.87;19.60;;;9.10;99.90;;;;;;5063766;28;20577;-71
2021/12/08 16:58:56;;;;;;;3.42;1.40;;;9.00;99.90;;;;;;5060411;28;20455;-71
2021/12/08 17:01:44;;;;;;;1.30;1.10;;;9.00;99.90;;;;;;5056739;28;20991;-72
2021/12/08 17:04:19;;;;;;;2.30;0.87;;;9.00;99.90;;;;;;5071705;28;20339;-69
2021/12/08 17:06:51;;;;;;;1.77;0.80;;;9.00;99.90;;;;;;5054202;28;20458;-71
2021/12/08 17:09:24;;;;;;;3.75;0.77;;;8.90;99.90;;;;;;5056630;28;20209;-71
2021/12/08 17:11:55;;;;;;;1.83;1.40;;;8.90;99.90;;;;;;5058935;28;20700;-72
2021/12/08 17:14:26;;;;;;;3.50;1.00;;;9.00;99.90;;;;;;5054131;28;20710;-70
2021/12/08 17:16:57;;;;;;;3.88;1.23;;;8.90;99.90;;;;;;5074311;28;20302;-70
2021/12/08 17:19:28;;;;;;;1.60;1.25;;;8.80;99.90;;;;;;5077452;28;20255;-69
2021/12/08 17:21:59;;;;;;;2.47;1.10;;;8.80;99.90;;;;;;5079470;28;20220;-69
2021/12/08 17:24:35;;;;;;;3.95;1.52;;;8.90;99.90;;;;;;5076612;28;20878;-69
2021/12/08 17:27:08;;;;;;;2.97;1.30;;;9.00;99.90;;;;;;5086988;28;20231;-68
2021/12/08 17:29:39;;;;;;;5.20;2.00;;;9.10;99.90;;;;;;5080008;28;20466;-71
2021/12/08 17:32:10;;;;;;;5.35;1.70;;;9.20;99.90;;;;;;5078262;28;20507;-70
2021/12/08 17:34:41;;;;;;;4.68;2.05;;;9.20;99.90;;;;;;5084218;28;20228;-70
2021/12/08 17:37:12;;;;;;;6.93;1.60;;;9.20;99.90;;;;;;5084071;28;20300;-70
2021/12/08 17:39:44;;;;;;;4.55;1.80;;;9.10;99.90;;;;;;5082213;28;20228;-71
2021/12/08 17:42:15;;;;;;;5.10;2.22;;;9.10;99.90;;;;;;5073913;28;20585;-69
2021/12/08 17:44:47;;;;;;;7.85;1.95;;;9.20;99.90;;;;;;5078285;28;20216;-70
2021/12/08 17:47:20;;;;;;;4.90;2.30;;;9.10;99.90;;;;;;5079114;28;20208;-70
2021/12/08 17:49:53;;;;;;;5.93;1.90;;;9.10;99.90;;;;;;5073599;28;20224;-69
2021/12/08 17:52:29;;;;;;;8.73;2.00;;;9.20;99.90;;;;;;5081230;28;20251;-72
2021/12/08 17:55:05;;;;;;;7.90;1.80;;;9.20;99.90;;;;;;5069429;28;20229;-69
2021/12/08 17:57:36;;;;;;;6.20;3.17;;;9.20;99.90;;;;;;5080886;28;20546;-70
2021/12/08 18:00:10;;;;;;;8.90;2.30;;;9.10;99.90;;;;;;5081189;28;20212;-69
2021/12/08 18:02:44;;;;;;;10.93;3.50;;;9.20;99.90;;;;;;5081672;28;20699;-70
2021/12/08 18:05:21;;;;;;;14.35;4.00;;;9.10;99.90;;;;;;5085583;28;20235;-70
2021/12/08 18:07:52;;;;;;;6.25;2.20;;;9.20;99.90;;;;;;5070537;28;20231;-69
2021/12/08 18:10:25;;;;;;;4.88;2.50;;;9.10;99.90;;;;;;5084607;28;20299;-71
2021/12/08 18:12:56;;;;;;;6.32;2.05;;;9.20;99.90;;;;;;5073939;28;20217;-70
2021/12/08 18:15:27;;;;;;;7.15;2.80;;;9.40;99.90;;;;;;5083306;28;20219;-69
2021/12/08 18:17:58;;;;;;;10.45;3.78;;;9.50;99.90;;;;;;5079724;28;20244;-68
2021/12/08 18:20:30;;;;;;;6.10;1.97;;;9.60;99.90;;;;;;5075466;28;20236;-69
2021/12/08 18:23:06;;;;;;;4.47;2.07;;;10.10;99.90;;;;;;5073603;28;20467;-69
2021/12/08 18:25:40;;;;;;;3.90;1.80;;;11.00;99.90;;;;;;5085513;28;20463;-70
2021/12/08 18:28:14;;;;;;;3.97;1.53;;;11.70;99.90;;;;;;5079803;28;20455;-71
2021/12/08 18:30:47;;;;;;;4.30;2.40;;;12.10;99.90;;;;;;5074582;28;20796;-71
2021/12/08 18:33:20;;;;;;;4.23;2.07;;;12.90;99.90;;;;;;5084092;28;20442;-70
2021/12/08 18:36:01;;;;;;;6.73;1.80;;;13.20;99.90;;;;;;5076499;28;20829;-71
2021/12/08 18:38:34;;;;;;;3.10;1.90;;;13.50;99.90;;;;;;5071652;28;20499;-71
2021/12/08 18:41:11;;;;;;;6.53;3.20;;;13.60;99.90;;;;;;5083241;28;20493;-71
2021/12/08 18:43:43;;;;;;;4.33;1.87;;;14.20;99.90;;;;;;5081287;28;20455;-71
2021/12/08 18:46:15;;;;;;;5.13;2.10;;;14.40;99.90;;;;;;5090798;28;20450;-71
2021/12/08 18:48:47;;;;;;;4.83;1.97;;;14.80;99.90;;;;;;5080529;28;20458;-71
2021/12/08 18:51:21;;;;;;;7.23;2.90;;;15.30;99.90;;;;;;5092131;28;20800;-71
2021/12/08 18:53:55;;;;;;;4.43;1.87;;;15.70;99.90;;;;;;5075679;28;20455;-71
2021/12/08 18:56:28;;;;;;;7.77;1.90;;;15.70;99.90;;;;;;5076487;28;20459;-71
2021/12/08 18:59:03;;;;;;;4.80;2.10;;;15.70;99.90;;;;;;5081023;28;20424;-72
2021/12/08 19:01:36;;;;;;;3.80;2.00;;;15.20;99.90;;;;;;5076433;28;20539;-71
2021/12/08 19:04:09;;;;;;;5.10;2.40;;;15.00;99.90;;;;;;5085846;28;20429;-71
2021/12/08 19:06:41;;;;;;;4.70;1.90;;;15.30;99.90;;;;;;5076881;28;20442;-71
2021/12/08 19:09:12;;;;;;;7.30;1.70;;;15.80;99.90;;;;;;5089774;28;20458;-72
2021/12/08 19:11:45;;;;;;;5.20;1.90;;;15.80;99.90;;;;;;5073125;28;20512;-71
2021/12/08 19:14:16;;;;;;;3.57;1.80;;;15.70;99.90;;;;;;5089961;28;20477;-69
2021/12/08 19:16:47;;;;;;;5.70;2.10;;;15.50;99.90;;;;;;5089994;28;20585;-70
2021/12/08 19:19:18;;;;;;;3.50;2.10;;;15.40;99.90;;;;;;5082092;28;20465;-69
2021/12/08 19:21:49;;;;;;;3.97;1.80;;;15.30;99.90;;;;;;5077464;28;20489;-69
2021/12/08 19:24:20;;;;;;;4.93;2.27;;;14.80;99.90;;;;;;5072257;28;20470;-70
2021/12/08 19:26:52;;;;;;;5.87;2.23;;;14.70;99.90;;;;;;5079510;28;20469;-69
2021/12/08 19:29:23;;;;;;;5.47;2.37;;;14.40;99.90;;;;;;5087973;28;20446;-69
2021/12/08 19:31:55;;;;;;;8.50;2.47;;;14.30;99.90;;;;;;5074860;28;20545;-69
2021/12/08 19:34:35;;;;;;;7.50;2.23;;;13.70;99.90;;;;;;5087187;28;20450;-68
2021/12/08 19:37:06;;;;;;;8.20;2.20;;;13.50;99.90;;;;;;5090915;28;20899;-69
2021/12/08 19:39:37;;;;;;;7.23;2.33;;;13.30;99.90;;;;;;5087355;28;20967;-69
2021/12/08 19:42:10;;;;;;;5.87;1.93;;;13.40;99.90;;;;;;5091237;28;20492;-69
2021/12/08 19:44:42;;;;;;;5.57;2.43;;;13.50;99.90;;;;;;5087195;28;20493;-69
2021/12/08 19:47:13;;;;;;;6.43;2.33;;;13.30;99.90;;;;;;5088691;28;20621;-69
2021/12/08 19:49:45;;;;;;;5.30;2.00;;;13.20;99.90;;;;;;5090369;28;20478;-69
2021/12/08 19:52:16;;;;;;;5.13;2.43;;;13.40;99.90;;;;;;5093242;28;20450;-68
2021/12/08 19:54:49;;;;;;;6.90;2.60;;;13.40;99.90;;;;;;5090873;28;20553;-68
2021/12/08 19:57:22;;;;;;;6.20;2.60;;;13.40;99.90;;;;;;5085263;28;20477;-68
2021/12/08 19:59:53;;;;;;;2.67;1.80;;;13.20;99.90;;;;;;5090940;28;20478;-69
2021/12/08 20:02:24;;;;;;;3.10;1.20;;;12.90;99.90;;;;;;5087533;28;20482;-69
2021/12/08 20:04:55;;;;;;;1.60;0.90;;;12.70;99.90;;;;;;5081129;28;20457;-68
2021/12/08 20:07:30;;;;;;;4.03;0.80;;;12.70;99.90;;;;;;5091004;28;20939;-67
2021/12/08 20:10:01;;;;;;;3.57;1.20;;;12.60;99.90;;;;;;5076701;28;20448;-68
2021/12/08 20:12:34;;;;;;;2.00;1.23;;;12.10;99.90;;;;;;5087508;28;20468;-68
2021/12/08 20:15:06;;;;;;;6.60;1.60;;;11.80;99.90;;;;;;5089008;28;20450;-68
2021/12/08 20:17:37;;;;;;;4.70;1.30;;;11.40;99.90;;;;;;5088527;28;20492;-68
2021/12/08 20:20:11;;;;;;;3.23;1.83;;;11.50;99.90;;;;;;5091191;28;20450;-68
2021/12/08 20:22:44;;;;;;;4.10;1.03;;;11.70;99.90;;;;;;5087500;28;20823;-68
2021/12/08 20:25:20;;;;;;;2.83;1.10;;;11.90;99.90;;;;;;5090796;28;20820;-68
2021/12/08 20:27:53;;;;;;;2.57;1.20;;;11.80;99.90;;;;;;5081127;28;20950;-69
2021/12/08 20:30:25;;;;;;;1.70;1.37;;;11.70;99.90;;;;;;5085912;28;20453;-68
2021/12/08 20:32:55;;;;;;;3.57;1.27;;;11.70;99.90;;;;;;5068836;28;20451;-68
2021/12/08 20:35:26;;;;;;;8.23;1.60;;;12.00;99.90;;;;;;5079066;28;20794;-68
2021/12/08 20:38:01;;;;;;;2.97;1.43;;;12.10;99.90;;;;;;5082847;28;20948;-69
2021/12/08 20:40:32;;;;;;;5.23;1.80;;;11.90;99.90;;;;;;5073887;28;20447;-69
2021/12/08 20:43:06;;;;;;;4.10;1.17;;;11.90;99.90;;;;;;5087114;28;20474;-69
2021/12/08 20:45:40;;;;;;;2.60;1.40;;;11.60;99.90;;;;;;5075177;28;20459;-69
2021/12/08 20:48:10;;;;;;;2.97;1.40;;;11.30;99.90;;;;;;5079693;28;20865;-70
2021/12/08 20:50:41;;;;;;;5.37;1.90;;;11.40;99.90;;;;;;5079515;28;20455;-69
2021/12/08 20:53:13;;;;;;;5.77;1.70;;;11.60;99.90;;;;;;5086304;28;20800;-70
2021/12/08 20:55:49;;;;;;;3.50;1.87;;;11.60;99.90;;;;;;5088356;28;20475;-73
2021/12/08 20:58:22;;;;;;;6.00;1.90;;;11.50;99.90;;;;;;5084444;28;20494;-73
2021/12/08 21:00:57;;;;;;;6.80;2.10;;;11.40;99.90;;;;;;5084384;28;20450;-72
2021/12/08 21:03:28;;;;;;;5.80;2.00;;;11.00;99.90;;;;;;5075614;28;20488;-70
2021/12/08 21:05:59;;;;;;;6.40;2.07;;;11.00;99.90;;;;;;5082033;28;20499;-71
2021/12/08 21:08:29;;;;;;;4.33;2.33;;;11.30;99.90;;;;;;5085438;28;20463;-73
2021/12/08 21:11:02;;;;;;;3.57;1.80;;;11.30;99.90;;;;;;5075688;28;20463;-72
2021/12/08 21:13:34;;;;;;;3.30;1.33;;;11.40;99.90;;;;;;5079410;28;20455;-71
2021/12/08 21:16:08;;;;;;;2.13;1.57;;;11.40;99.90;;;;;;5084658;28;20450;-71
2021/12/08 21:18:41;;;;;;;2.93;1.60;;;11.40;99.90;;;;;;5083097;28;20489;-71
2021/12/08 21:21:14;;;;;;;5.73;1.40;;;11.40;99.90;;;;;;5080726;28;20451;-71
2021/12/08 21:23:44;;;;;;;3.30;2.90;;;11.40;99.90;;;;;;5079717;28;20530;-71
2021/12/08 21:26:17;;;;;;;4.07;1.73;;;11.40;99.90;;;;;;5080894;28;20476;-71
2021/12/08 21:28:52;;;;;;;4.77;1.40;;;11.30;99.90;;;;;;5084345;28;20443;-71
2021/12/08 21:31:23;;;;;;;6.50;1.60;;;11.10;99.90;;;;;;5086707;28;20449;-71
2021/12/08 21:33:56;;;;;;;2.90;1.80;;;11.00;99.90;;;;;;5077490;28;20451;-71
2021/12/08 21:36:28;;;;;;;6.43;1.70;;;10.80;99.90;;;;;;5086581;28;20557;-72
2021/12/08 21:39:00;;;;;;;2.60;1.50;;;10.70;99.90;;;;;;5078014;28;20451;-71
2021/12/08 21:41:31;;;;;;;6.10;1.93;;;10.70;99.90;;;;;;5095784;28;20445;-71
2021/12/08 21:44:04;;;;;;;4.07;1.70;;;10.70;99.90;;;;;;5086837;28;20474;-71
2021/12/08 21:46:35;;;;;;;5.67;1.90;;;10.60;99.90;;;;;;5089196;28;20462;-71
2021/12/08 21:49:07;;;;;;;3.27;1.90;;;10.70;99.90;;;;;;5072727;28;20817;-71
2021/12/08 21:51:38;;;;;;;3.23;1.33;;;10.70;99.90;;;;;;5086973;28;21318;-71
2021/12/08 21:54:10;;;;;;;3.70;2.33;;;10.80;99.90;;;;;;5084964;28;20447;-71
2021/12/08 21:56:56;;;;;;;6.30;2.50;;;10.80;99.90;;;;;;5088444;28;20478;-72
2021/12/08 21:59:34;;;;;;;4.83;2.23;;;10.70;99.90;;;;;;5085969;28;20462;-73
2021/12/08 22:02:05;;;;;;;5.60;1.57;;;10.70;99.90;;;;;;5087326;28;20827;-72
2021/12/08 22:04:36;;;;;;;2.93;1.60;;;10.80;99.90;;;;;;5084165;28;20860;-72
2021/12/08 22:07:07;;;;;;;2.70;1.67;;;10.90;99.90;;;;;;5088395;28;20469;-72
2021/12/08 22:09:38;;;;;;;5.60;1.70;;;10.90;99.90;;;;;;5071272;28;21283;-72
2021/12/08 22:12:10;;;;;;;3.00;1.60;;;10.80;99.90;;;;;;5087397;28;20826;-72
2021/12/08 22:14:45;;;;;;;5.23;1.80;;;10.60;99.90;;;;;;5082889;28;20454;-72
2021/12/08 22:17:16;;;;;;;3.40;1.73;;;10.50;99.90;;;;;;5083382;28;20466;-72
2021/12/08 22:19:50;;;;;;;4.60;1.50;;;10.40;99.90;;;;;;5078049;28;20528;-72
2021/12/08 22:22:22;;;;;;;3.80;1.80;;;10.60;99.90;;;;;;5082675;28;20543;-71
2021/12/08 22:24:53;;;;;;;4.93;1.87;;;10.50;99.90;;;;;;5075368;28;20216;-71
2021/12/08 22:27:24;;;;;;;7.20;2.20;;;10.40;99.90;;;;;;5065878;28;20976;-72
2021/12/08 22:29:56;;;;;;;6.97;1.33;;;10.40;99.90;;;;;;5081000;28;20557;-70
2021/12/08 22:32:30;;;;;;;5.43;1.60;;;10.60;99.90;;;;;;5073966;28;20534;-72
2021/12/08 22:35:01;;;;;;;3.03;1.47;;;10.80;99.90;;;;;;5072191;28;20457;-70
2021/12/08 22:37:32;;;;;;;4.47;1.23;;;11.00;99.90;;;;;;5085290;28;20450;-70
2021/12/08 22:40:04;;;;;;;2.80;1.43;;;11.20;99.90;;;;;;5074686;28;20929;-70
2021/12/08 22:42:35;;;;;;;1.50;1.40;;;11.40;99.90;;;;;;5083716;28;20462;-71
2021/12/08 22:45:14;;;;;;;4.90;1.60;;;11.40;99.90;;;;;;5101547;28;20500;-72
2021/12/08 22:47:48;;;;;;;3.40;1.80;;;11.30;99.90;;;;;;5085322;28;20564;-73
2021/12/08 22:50:23;;;;;;;5.23;1.93;;;11.00;99.90;;;;;;5079102;28;20454;-72
2021/12/08 22:52:54;;;;;;;2.60;1.73;;;10.70;99.90;;;;;;5086801;28;20446;-72
2021/12/08 22:55:25;;;;;;;6.87;1.83;;;10.70;99.90;;;;;;5083637;28;20468;-72
2021/12/08 22:57:57;;;;;;;9.07;1.70;;;10.80;99.90;;;;;;5088610;28;20801;-71
2021/12/08 23:00:58;;;;;;;5.23;2.60;;;10.70;99.90;;;;;;5078675;28;20507;-69
2021/12/08 23:03:30;;;;;;;7.30;2.10;;;9.80;99.90;;;;;;5079035;28;20481;-68
2021/12/08 23:06:02;;;;;;;3.25;1.73;;;9.30;99.90;;;;;;5073320;28;20232;-68
2021/12/08 23:08:34;;;;;;;4.72;1.98;;;9.10;99.90;;;;;;5068039;28;20601;-70
2021/12/08 23:11:12;;;;;;;6.75;1.70;;;9.10;99.90;;;;;;5083521;28;20216;-68
2021/12/08 23:13:43;;;;;;;3.28;1.70;;;9.00;99.90;;;;;;5057085;28;20260;-68
2021/12/08 23:16:17;;;;;;;4.47;2.15;;;8.90;99.90;;;;;;5073673;28;20251;-68
2021/12/08 23:18:52;;;;;;;6.07;1.98;;;8.90;99.90;;;;;;5076281;28;20213;-68
2021/12/08 23:21:26;;;;;;;3.17;1.50;;;8.80;99.90;;;;;;5081390;28;20695;-69
2021/12/08 23:23:58;;;;;;;3.70;1.40;;;8.70;99.90;;;;;;5088692;28;20250;-69
2021/12/08 23:26:31;;;;;;;3.30;1.45;;;8.60;99.90;;;;;;5087910;28;20224;-69
2021/12/08 23:29:05;;;;;;;4.25;1.90;;;8.70;99.90;;;;;;5084883;28;20213;-70
2021/12/08 23:31:41;;;;;;;2.45;1.60;;;8.70;99.90;;;;;;5075941;28;20219;-69
2021/12/08 23:34:13;;;;;;;3.05;1.80;;;8.80;99.90;;;;;;5082823;28;20244;-69
2021/12/08 23:36:47;;;;;;;2.25;1.70;;;8.90;99.90;;;;;;5061500;28;20217;-71
2021/12/08 23:39:24;;;;;;;2.90;1.40;;;8.80;99.90;;;;;;5087590;28;20219;-70
2021/12/08 23:41:56;;;;;;;2.55;1.80;;;8.70;99.90;;;;;;5078246;28;20298;-69
2021/12/08 23:44:28;;;;;;;2.85;1.88;;;8.70;99.90;;;;;;5074016;28;20224;-69
2021/12/08 23:47:05;;;;;;;4.93;2.13;;;8.70;99.90;;;;;;5071642;28;20694;-68
2021/12/08 23:49:38;;;;;;;3.17;1.55;;;8.60;99.90;;;;;;5085262;28;20211;-68
2021/12/08 23:52:09;;;;;;;4.85;1.88;;;8.50;99.90;;;;;;5069537;28;20219;-68
2021/12/08 23:54:40;;;;;;;5.03;1.83;;;8.50;99.90;;;;;;5086579;28;20219;-68
2021/12/08 23:57:13;;;;;;;4.10;1.40;;;8.40;99.90;;;;;;5085842;28;20665;-70
2021/12/08 23:59:48;;;;;;;2.95;1.75;;;8.30;99.90;;;;;;5087441;28;20277;-70
